sensor_id;sensor_type;location;lat;lon;timestamp;P1;durP1;ratioP1;P2;durP2;ratioP2
15557;SDS011;7880;50.110;9.372;2022-07-22T00:02:36;9.907692307692306;;;6.369230769230768;;
15557;SDS011;7880;50.110;9.372;2022-07-22T00:07:39;7.938461538461538;;;6.700000000000002;;
15557;SDS011;7880;50.110;9.372;2022-07-22T00:12:46;8.299999999999999;;;6.200000000000002;;
15557;SDS011;7880;50.110;9.372;2022-07-22T00:17:48;7.823076923076922;;;6.86153846153846;;
15557;SDS011;7880;50.110;9.372;2022-07-22T00:22:51;11.13846153846154;;;7.438461538461538;;
15557;SDS011;7880;50.110;9.372;2022-07-22T00:27:54;7.030769230769229;;;6.230769230769231;;
15557;SDS011;7880;50.110;9.372;2022-07-22T00:32:57;8.700000000000001;;;7.06923076923077;;
15557;SDS011;7880;50.110;9.372;2022-07-22T00:38:02;9.546153846153846;;;6.6230769230769235;;
15557;SDS011;7880;50.110;9.372;2022-07-22T00:43:05;7.792307692307693;;;6.599999999999999;;
15557;SDS011;7880;50.110;9.372;2022-07-22T00:48:08;8.438461538461537;;;6.769230769230769;;
15557;SDS011;7880;50.110;9.372;2022-07-22T00:53:15;8.807692307692308;;;6.769230769230769;;
15557;SDS011;7880;50.110;9.372;2022-07-22T00:58:17;8.823076923076924;;;6.330769230769231;;
15557;SDS011;7880;50.110;9.372;2022-07-22T01:03:20;6.700000000000002;;;6.1;;
15557;SDS011;7880;50.110;9.372;2022-07-22T01:08:32;7.761538461538464;;;6.961538461538459;;
15557;SDS011;7880;50.110;9.372;2022-07-22T01:13:30;6.469230769230771;;;5.799999999999998;;
15557;SDS011;7880;50.110;9.372;2022-07-22T01:18:31;9.438461538461537;;;6.330769230769231;;
15557;SDS011;7880;50.110;9.372;2022-07-22T01:23:38;7.053846153846155;;;6.353846153846153;;
15557;SDS011;7880;50.110;9.372;2022-07-22T01:28:40;7.938461538461538;;;6.700000000000002;;
15557;SDS011;7880;50.110;9.372;2022-07-22T01:33:42;8.03846153846154;;;6.299999999999998;;
15557;SDS011;7880;50.110;9.372;2022-07-22T01:38:50;10.400000000000002;;;8.5;;
15557;SDS011;7880;50.110;9.372;2022-07-22T01:43:51;10.66923076923077;;;7.200000000000002;;
15557;SDS011;7880;50.110;9.372;2022-07-22T01:48:55;9.59230769230769;;;6.5;;
15557;SDS011;7880;50.110;9.372;2022-07-22T01:53:57;7.169230769230769;;;5.9;;
15557;SDS011;7880;50.110;9.372;2022-07-22T01:59:01;8.253846153846151;;;5.761538461538463;;
15557;SDS011;7880;50.110;9.372;2022-07-22T02:04:05;6.1;;;5.4;;
15557;SDS011;7880;50.110;9.372;2022-07-22T02:09:08;7.099999999999999;;;6.0;;
15557;SDS011;7880;50.110;9.372;2022-07-22T02:14:16;7.66153846153846;;;6.4;;
15557;SDS011;7880;50.110;9.372;2022-07-22T02:19:22;6.738461538461536;;;5.46923076923077;;
15557;SDS011;7880;50.110;9.372;2022-07-22T02:24:20;6.900000000000001;;;6.200000000000002;;
15557;SDS011;7880;50.110;9.372;2022-07-22T02:29:23;7.969230769230771;;;6.1;;
15557;SDS011;7880;50.110;9.372;2022-07-22T02:34:33;6.4;;;5.799999999999998;;
15557;SDS011;7880;50.110;9.372;2022-07-22T02:39:31;6.599999999999999;;;5.869230769230768;;
15557;SDS011;7880;50.110;9.372;2022-07-22T02:44:54;8.700000000000001;;;6.4;;
15557;SDS011;7880;50.110;9.372;2022-07-22T02:49:37;8.299999999999999;;;6.461538461538459;;
15557;SDS011;7880;50.110;9.372;2022-07-22T02:54:41;7.0;;;5.5;;
15557;SDS011;7880;50.110;9.372;2022-07-22T02:59:46;9.06153846153846;;;7.200000000000002;;
15557;SDS011;7880;50.110;9.372;2022-07-22T03:04:49;12.076923076923073;;;7.730769230769231;;
15557;SDS011;7880;50.110;9.372;2022-07-22T03:09:52;10.63846153846154;;;7.099999999999999;;
15557;SDS011;7880;50.110;9.372;2022-07-22T03:14:55;12.00769230769231;;;7.700000000000002;;
15557;SDS011;7880;50.110;9.372;2022-07-22T03:20:00;11.430769230769233;;;7.900000000000001;;
15557;SDS011;7880;50.110;9.372;2022-07-22T03:25:03;9.0;;;7.400000000000001;;
15557;SDS011;7880;50.110;9.372;2022-07-22T03:30:14;8.969230769230771;;;8.069230769230769;;
15557;SDS011;7880;50.110;9.372;2022-07-22T03:35:12;10.06153846153846;;;8.261538461538464;;
15557;SDS011;7880;50.110;9.372;2022-07-22T03:40:15;11.676923076923076;;;8.569230769230769;;
15557;SDS011;7880;50.110;9.372;2022-07-22T03:45:20;10.99230769230769;;;7.946153846153845;;
15557;SDS011;7880;50.110;9.372;2022-07-22T03:50:24;10.36923076923077;;;8.099999999999998;;
15557;SDS011;7880;50.110;9.372;2022-07-22T03:55:34;10.469230769230771;;;7.599999999999999;;
15557;SDS011;7880;50.110;9.372;2022-07-22T04:00:36;10.707692307692307;;;7.169230769230769;;
15557;SDS011;7880;50.110;9.372;2022-07-22T04:05:41;10.123076923076924;;;7.661538461538461;;
15557;SDS011;7880;50.110;9.372;2022-07-22T04:10:49;8.938461538461539;;;8.03846153846154;;
15557;SDS011;7880;50.110;9.372;2022-07-22T04:16:02;8.830769230769231;;;7.93076923076923;;
15557;SDS011;7880;50.110;9.372;2022-07-22T04:21:08;7.630769230769232;;;6.830769230769231;;
15557;SDS011;7880;50.110;9.372;2022-07-22T04:26:09;10.007692307692308;;;7.469230769230771;;
15557;SDS011;7880;50.110;9.372;2022-07-22T04:31:13;10.592307692307694;;;8.13076923076923;;
15557;SDS011;7880;50.110;9.372;2022-07-22T04:36:22;8.700000000000001;;;7.730769230769231;;
15557;SDS011;7880;50.110;9.372;2022-07-22T04:41:20;9.807692307692308;;;8.099999999999998;;
15557;SDS011;7880;50.110;9.372;2022-07-22T04:46:23;7.730769230769231;;;6.93076923076923;;
15557;SDS011;7880;50.110;9.372;2022-07-22T04:51:27;8.0;;;7.200000000000002;;
15557;SDS011;7880;50.110;9.372;2022-07-22T04:56:33;7.523076923076922;;;6.661538461538461;;
15557;SDS011;7880;50.110;9.372;2022-07-22T05:01:36;7.400000000000001;;;6.700000000000002;;
15557;SDS011;7880;50.110;9.372;2022-07-22T05:06:52;8.599999999999998;;;7.630769230769232;;
15557;SDS011;7880;50.110;9.372;2022-07-22T05:11:43;7.56923076923077;;;6.869230769230768;;
15557;SDS011;7880;50.110;9.372;2022-07-22T05:16:50;7.93076923076923;;;7.130769230769232;;
15557;SDS011;7880;50.110;9.372;2022-07-22T05:21:51;7.869230769230768;;;7.06923076923077;;
15557;SDS011;7880;50.110;9.372;2022-07-22T05:26:54;7.130769230769232;;;6.43076923076923;;
15557;SDS011;7880;50.110;9.372;2022-07-22T05:32:07;8.299999999999999;;;7.130769230769232;;
15557;SDS011;7880;50.110;9.372;2022-07-22T05:37:00;8.3;;;6.823076923076922;;
15557;SDS011;7880;50.110;9.372;2022-07-22T05:42:05;8.646153846153844;;;7.453846153846153;;
15557;SDS011;7880;50.110;9.372;2022-07-22T05:47:10;8.96153846153846;;;7.099999999999999;;
15557;SDS011;7880;50.110;9.372;2022-07-22T05:52:13;9.530769230769229;;;8.530769230769229;;
15557;SDS011;7880;50.110;9.372;2022-07-22T05:57:17;9.438461538461537;;;7.130769230769232;;
15557;SDS011;7880;50.110;9.372;2022-07-22T06:02:21;7.5;;;6.700000000000002;;
15557;SDS011;7880;50.110;9.372;2022-07-22T06:07:26;7.869230769230768;;;6.200000000000002;;
15557;SDS011;7880;50.110;9.372;2022-07-22T06:12:29;6.200000000000002;;;5.6;;
15557;SDS011;7880;50.110;9.372;2022-07-22T06:17:32;6.799999999999998;;;6.200000000000002;;
15557;SDS011;7880;50.110;9.372;2022-07-22T06:22:35;5.1692307692307695;;;4.6000000000000005;;
15557;SDS011;7880;50.110;9.372;2022-07-22T06:27:40;6.469230769230771;;;5.869230769230768;;
15557;SDS011;7880;50.110;9.372;2022-07-22T06:32:43;7.099999999999999;;;5.230769230769231;;
15557;SDS011;7880;50.110;9.372;2022-07-22T06:37:51;5.238461538461538;;;4.738461538461538;;
15557;SDS011;7880;50.110;9.372;2022-07-22T06:42:54;5.769230769230769;;;4.3999999999999995;;
15557;SDS011;7880;50.110;9.372;2022-07-22T06:47:59;4.730769230769232;;;4.33076923076923;;
15557;SDS011;7880;50.110;9.372;2022-07-22T06:53:03;4.130769230769232;;;3.7999999999999994;;
15557;SDS011;7880;50.110;9.372;2022-07-22T06:58:07;5.238461538461538;;;4.3999999999999995;;
15557;SDS011;7880;50.110;9.372;2022-07-22T07:03:11;5.1000000000000005;;;3.93076923076923;;
15557;SDS011;7880;50.110;9.372;2022-07-22T07:08:14;5.06923076923077;;;4.3999999999999995;;
15557;SDS011;7880;50.110;9.372;2022-07-22T07:13:17;4.799999999999999;;;4.030769230769231;;
15557;SDS011;7880;50.110;9.372;2022-07-22T07:18:21;4.530769230769231;;;4.1000000000000005;;
15557;SDS011;7880;50.110;9.372;2022-07-22T07:23:25;5.1000000000000005;;;4.6000000000000005;;
15557;SDS011;7880;50.110;9.372;2022-07-22T07:28:30;5.769230769230769;;;4.130769230769232;;
15557;SDS011;7880;50.110;9.372;2022-07-22T07:33:33;4.8999999999999995;;;4.3999999999999995;;
15557;SDS011;7880;50.110;9.372;2022-07-22T07:38:40;4.8999999999999995;;;4.3999999999999995;;
15557;SDS011;7880;50.110;9.372;2022-07-22T07:43:42;4.06923076923077;;;3.600000000000001;;
15557;SDS011;7880;50.110;9.372;2022-07-22T07:48:48;3.43076923076923;;;3.2;;
15557;SDS011;7880;50.110;9.372;2022-07-22T07:53:50;6.169230769230769;;;3.969230769230769;;
15557;SDS011;7880;50.110;9.372;2022-07-22T07:58:53;4.5538461538461545;;;4.153846153846154;;
15557;SDS011;7880;50.110;9.372;2022-07-22T08:03:57;3.93076923076923;;;3.530769230769231;;
15557;SDS011;7880;50.110;9.372;2022-07-22T08:09:00;5.56923076923077;;;3.7307692307692295;;
15557;SDS011;7880;50.110;9.372;2022-07-22T08:14:02;4.430769230769231;;;3.7000000000000006;;
15557;SDS011;7880;50.110;9.372;2022-07-22T08:19:06;4.5;;;4.1000000000000005;;
15557;SDS011;7880;50.110;9.372;2022-07-22T08:24:09;3.43076923076923;;;3.130769230769232;;
15557;SDS011;7880;50.110;9.372;2022-07-22T08:29:14;3.630769230769232;;;3.3307692307692305;;
15557;SDS011;7880;50.110;9.372;2022-07-22T08:34:17;3.93076923076923;;;3.630769230769232;;
15557;SDS011;7880;50.110;9.372;2022-07-22T08:39:20;3.899999999999999;;;3.3307692307692305;;
15557;SDS011;7880;50.110;9.372;2022-07-22T08:44:25;3.7999999999999994;;;3.5;;
15557;SDS011;7880;50.110;9.372;2022-07-22T08:49:29;4.200000000000001;;;3.7999999999999994;;
15557;SDS011;7880;50.110;9.372;2022-07-22T08:54:34;3.2538461538461525;;;3.0538461538461545;;
15557;SDS011;7880;50.110;9.372;2022-07-22T08:59:48;3.5;;;3.2;;
15557;SDS011;7880;50.110;9.372;2022-07-22T09:04:53;3.899999999999999;;;3.600000000000001;;
15557;SDS011;7880;50.110;9.372;2022-07-22T09:09:49;3.4615384615384617;;;3.161538461538461;;
15557;SDS011;7880;50.110;9.372;2022-07-22T09:14:55;3.8307692307692305;;;3.43076923076923;;
15557;SDS011;7880;50.110;9.372;2022-07-22T09:18:13;4.130769230769231;;;3.7307692307692317;;
15557;SDS011;7880;50.110;9.372;2022-07-22T09:23:19;3.7999999999999994;;;3.399999999999999;;
15557;SDS011;7880;50.110;9.372;2022-07-22T09:28:22;3.600000000000001;;;3.2999999999999994;;
15557;SDS011;7880;50.110;9.372;2022-07-22T09:33:25;4.869230769230769;;;3.130769230769232;;
15557;SDS011;7880;50.110;9.372;2022-07-22T09:38:29;3.3307692307692305;;;3.030769230769231;;
15557;SDS011;7880;50.110;9.372;2022-07-22T09:43:35;3.6692307692307695;;;3.369230769230768;;
15557;SDS011;7880;50.110;9.372;2022-07-22T09:48:40;4.0307692307692315;;;3.7000000000000006;;
15557;SDS011;7880;50.110;9.372;2022-07-22T09:54:05;3.7307692307692295;;;3.43076923076923;;
15557;SDS011;7880;50.110;9.372;2022-07-22T09:59:04;3.7999999999999994;;;3.5;;
15557;SDS011;7880;50.110;9.372;2022-07-22T10:04:00;3.969230769230769;;;3.3307692307692305;;
15557;SDS011;7880;50.110;9.372;2022-07-22T10:09:05;3.6692307692307695;;;3.369230769230768;;
15557;SDS011;7880;50.110;9.372;2022-07-22T10:14:10;3.899999999999999;;;3.600000000000001;;
15557;SDS011;7880;50.110;9.372;2022-07-22T10:19:13;4.869230769230769;;;3.7000000000000006;;
15557;SDS011;7880;50.110;9.372;2022-07-22T10:24:18;3.469230769230769;;;3.2;;
15557;SDS011;7880;50.110;9.372;2022-07-22T10:29:25;6.707692307692306;;;4.153846153846154;;
15557;SDS011;7880;50.110;9.372;2022-07-22T10:34:24;3.7999999999999994;;;3.5;;
15557;SDS011;7880;50.110;9.372;2022-07-22T10:39:26;3.600000000000001;;;3.2999999999999994;;
15557;SDS011;7880;50.110;9.372;2022-07-22T10:44:46;3.869230769230768;;;3.469230769230769;;
15557;SDS011;7880;50.110;9.372;2022-07-22T10:49:32;4.6000000000000005;;;3.7000000000000006;;
15557;SDS011;7880;50.110;9.372;2022-07-22T10:55:15;4.200000000000001;;;3.7307692307692295;;
15557;SDS011;7880;50.110;9.372;2022-07-22T10:59:54;3.600000000000001;;;3.2999999999999994;;
15557;SDS011;7880;50.110;9.372;2022-07-22T11:04:59;4.0;;;3.030769230769231;;
15557;SDS011;7880;50.110;9.372;2022-07-22T11:10:09;3.8307692307692305;;;3.530769230769231;;
15557;SDS011;7880;50.110;9.372;2022-07-22T11:15:08;4.1000000000000005;;;3.7999999999999994;;
15557;SDS011;7880;50.110;9.372;2022-07-22T11:20:09;4.16923076923077;;;3.7692307692307705;;
15557;SDS011;7880;50.110;9.372;2022-07-22T11:25:12;4.0;;;3.7000000000000006;;
15557;SDS011;7880;50.110;9.372;2022-07-22T11:30:16;3.600000000000001;;;3.2999999999999994;;
15557;SDS011;7880;50.110;9.372;2022-07-22T11:35:19;3.899999999999999;;;3.5;;
15557;SDS011;7880;50.110;9.372;2022-07-22T11:40:30;5.238461538461538;;;3.600000000000001;;
15557;SDS011;7880;50.110;9.372;2022-07-22T11:45:27;3.8538461538461535;;;3.5538461538461545;;
15557;SDS011;7880;50.110;9.372;2022-07-22T11:50:39;4.2615384615384615;;;3.93076923076923;;
15557;SDS011;7880;50.110;9.372;2022-07-22T11:55:35;4.96923076923077;;;3.8307692307692305;;
15557;SDS011;7880;50.110;9.372;2022-07-22T12:00:42;4.369230769230769;;;3.969230769230769;;
15557;SDS011;7880;50.110;9.372;2022-07-22T12:05:43;4.6000000000000005;;;4.1000000000000005;;
15557;SDS011;7880;50.110;9.372;2022-07-22T12:10:47;4.8999999999999995;;;4.3999999999999995;;
15557;SDS011;7880;50.110;9.372;2022-07-22T12:15:52;5.0;;;4.5;;
15557;SDS011;7880;50.110;9.372;2022-07-22T12:20:57;4.200000000000001;;;3.7307692307692295;;
15557;SDS011;7880;50.110;9.372;2022-07-22T12:26:00;4.299999999999999;;;3.899999999999999;;
15557;SDS011;7880;50.110;9.372;2022-07-22T12:31:02;4.469230769230769;;;4.06923076923077;;
15557;SDS011;7880;50.110;9.372;2022-07-22T12:36:07;5.476923076923076;;;4.16923076923077;;
15557;SDS011;7880;50.110;9.372;2022-07-22T12:41:28;5.038461538461539;;;4.06923076923077;;
15557;SDS011;7880;50.110;9.372;2022-07-22T12:46:19;4.6000000000000005;;;4.200000000000001;;
15557;SDS011;7880;50.110;9.372;2022-07-22T12:51:20;5.238461538461538;;;4.769230769230769;;
15557;SDS011;7880;50.110;9.372;2022-07-22T12:56:23;6.507692307692308;;;4.6692307692307695;;
15557;SDS011;7880;50.110;9.372;2022-07-22T13:01:28;6.06923076923077;;;5.0;;
15557;SDS011;7880;50.110;9.372;2022-07-22T13:06:33;5.4;;;3.8307692307692305;;
15557;SDS011;7880;50.110;9.372;2022-07-22T13:11:39;4.938461538461538;;;4.438461538461538;;
15557;SDS011;7880;50.110;9.372;2022-07-22T13:16:39;5.73846153846154;;;4.200000000000001;;
15557;SDS011;7880;50.110;9.372;2022-07-22T13:21:44;4.884615384615385;;;3.93076923076923;;
15557;SDS011;7880;50.110;9.372;2022-07-22T13:26:46;7.469230769230771;;;4.730769230769231;;
15557;SDS011;7880;50.110;9.372;2022-07-22T13:31:51;5.230769230769231;;;4.130769230769232;;
15557;SDS011;7880;50.110;9.372;2022-07-22T13:36:56;4.96923076923077;;;4.469230769230769;;
15557;SDS011;7880;50.110;9.372;2022-07-22T13:41:58;5.0;;;4.5;;
15557;SDS011;7880;50.110;9.372;2022-07-22T13:47:02;7.200000000000002;;;4.33076923076923;;
15557;SDS011;7880;50.110;9.372;2022-07-22T13:52:06;5.438461538461538;;;4.1000000000000005;;
15557;SDS011;7880;50.110;9.372;2022-07-22T13:57:11;5.707692307692307;;;4.530769230769231;;
15557;SDS011;7880;50.110;9.372;2022-07-22T14:02:15;6.06923076923077;;;4.869230769230769;;
15557;SDS011;7880;50.110;9.372;2022-07-22T14:07:20;4.769230769230769;;;4.269230769230769;;
15557;SDS011;7880;50.110;9.372;2022-07-22T14:12:24;6.13846153846154;;;4.23076923076923;;
15557;SDS011;7880;50.110;9.372;2022-07-22T14:17:28;4.130769230769232;;;3.8307692307692305;;
15557;SDS011;7880;50.110;9.372;2022-07-22T14:22:23;7.715384615384613;;;4.538461538461538;;
15557;SDS011;7880;50.110;9.372;2022-07-22T14:27:26;5.238461538461538;;;4.469230769230769;;
15557;SDS011;7880;50.110;9.372;2022-07-22T14:32:30;4.938461538461538;;;4.469230769230769;;
15557;SDS011;7880;50.110;9.372;2022-07-22T14:37:34;5.1692307692307695;;;4.130769230769232;;
15557;SDS011;7880;50.110;9.372;2022-07-22T14:42:41;5.869230769230768;;;4.569230769230769;;
15557;SDS011;7880;50.110;9.372;2022-07-22T14:47:43;11.676923076923076;;;4.200000000000001;;
15557;SDS011;7880;50.110;9.372;2022-07-22T14:52:45;8.63076923076923;;;4.5;;
15557;SDS011;7880;50.110;9.372;2022-07-22T14:57:47;4.5;;;4.1000000000000005;;
15557;SDS011;7880;50.110;9.372;2022-07-22T15:02:51;7.06923076923077;;;4.16923076923077;;
15557;SDS011;7880;50.110;9.372;2022-07-22T15:07:54;5.03076923076923;;;4.200000000000001;;
15557;SDS011;7880;50.110;9.372;2022-07-22T15:12:58;6.50769230769231;;;4.799999999999999;;
15557;SDS011;7880;50.110;9.372;2022-07-22T15:18:02;6.192307692307694;;;4.569230769230769;;
15557;SDS011;7880;50.110;9.372;2022-07-22T15:23:05;4.938461538461538;;;4.538461538461538;;
15557;SDS011;7880;50.110;9.372;2022-07-22T15:28:13;6.63846153846154;;;4.299999999999999;;
15557;SDS011;7880;50.110;9.372;2022-07-22T15:33:13;4.523076923076922;;;4.0307692307692315;;
15557;SDS011;7880;50.110;9.372;2022-07-22T15:38:16;4.799999999999999;;;4.23076923076923;;
15557;SDS011;7880;50.110;9.372;2022-07-22T15:43:23;5.338461538461538;;;4.200000000000001;;
15557;SDS011;7880;50.110;9.372;2022-07-22T15:48:22;4.6692307692307695;;;4.1000000000000005;;
15557;SDS011;7880;50.110;9.372;2022-07-22T15:53:24;5.1692307692307695;;;4.1000000000000005;;
15557;SDS011;7880;50.110;9.372;2022-07-22T15:59:32;4.469230769230769;;;4.06923076923077;;
15557;SDS011;7880;50.110;9.372;2022-07-22T16:04:12;3.899999999999999;;;3.5;;
15557;SDS011;7880;50.110;9.372;2022-07-22T16:09:19;4.6000000000000005;;;4.200000000000001;;
15557;SDS011;7880;50.110;9.372;2022-07-22T16:14:23;5.269230769230769;;;4.769230769230769;;
15557;SDS011;7880;50.110;9.372;2022-07-22T16:19:26;4.96923076923077;;;4.469230769230769;;
15557;SDS011;7880;50.110;9.372;2022-07-22T16:24:28;6.469230769230771;;;4.3999999999999995;;
15557;SDS011;7880;50.110;9.372;2022-07-22T16:29:33;5.938461538461538;;;4.200000000000001;;
15557;SDS011;7880;50.110;9.372;2022-07-22T16:34:38;4.299999999999999;;;3.561538461538462;;
15557;SDS011;7880;50.110;9.372;2022-07-22T16:39:45;4.700000000000001;;;4.200000000000001;;
15557;SDS011;7880;50.110;9.372;2022-07-22T16:44:48;4.630769230769232;;;4.23076923076923;;
15557;SDS011;7880;50.110;9.372;2022-07-22T16:49:52;4.730769230769231;;;4.33076923076923;;
15557;SDS011;7880;50.110;9.372;2022-07-22T16:55:00;4.8076923076923075;;;4.338461538461538;;
15557;SDS011;7880;50.110;9.372;2022-07-22T16:59:59;4.799999999999999;;;4.299999999999999;;
15557;SDS011;7880;50.110;9.372;2022-07-22T17:05:02;6.10769230769231;;;4.369230769230769;;
15557;SDS011;7880;50.110;9.372;2022-07-22T17:10:12;5.200000000000001;;;4.700000000000001;;
15557;SDS011;7880;50.110;9.372;2022-07-22T17:15:12;4.799999999999999;;;4.299999999999999;;
15557;SDS011;7880;50.110;9.372;2022-07-22T17:20:17;4.33076923076923;;;3.93076923076923;;
15557;SDS011;7880;50.110;9.372;2022-07-22T17:25:23;5.200000000000001;;;4.3999999999999995;;
15557;SDS011;7880;50.110;9.372;2022-07-22T17:30:26;5.369230769230768;;;4.299999999999999;;
15557;SDS011;7880;50.110;9.372;2022-07-22T17:35:31;5.138461538461538;;;4.1000000000000005;;
15557;SDS011;7880;50.110;9.372;2022-07-22T17:40:37;8.238461538461536;;;4.8999999999999995;;
15557;SDS011;7880;50.110;9.372;2022-07-22T17:45:43;6.238461538461539;;;4.8999999999999995;;
15557;SDS011;7880;50.110;9.372;2022-07-22T17:50:44;6.1769230769230745;;;4.66923076923077;;
15557;SDS011;7880;50.110;9.372;2022-07-22T17:55:54;5.230769230769231;;;4.730769230769231;;
15557;SDS011;7880;50.110;9.372;2022-07-22T18:00:57;8.307692307692307;;;4.430769230769231;;
15557;SDS011;7880;50.110;9.372;2022-07-22T18:05:59;5.3307692307692305;;;4.830769230769231;;
15557;SDS011;7880;50.110;9.372;2022-07-22T18:11:02;6.938461538461538;;;4.6000000000000005;;
15557;SDS011;7880;50.110;9.372;2022-07-22T18:16:07;6.476923076923076;;;5.230769230769231;;
15557;SDS011;7880;50.110;9.372;2022-07-22T18:21:16;6.63846153846154;;;4.8999999999999995;;
15557;SDS011;7880;50.110;9.372;2022-07-22T18:26:14;5.799999999999998;;;5.200000000000001;;
15557;SDS011;7880;50.110;9.372;2022-07-22T18:31:18;5.6692307692307695;;;4.8999999999999995;;
15557;SDS011;7880;50.110;9.372;2022-07-22T18:36:22;5.1000000000000005;;;4.700000000000001;;
15557;SDS011;7880;50.110;9.372;2022-07-22T18:41:26;4.630769230769232;;;4.23076923076923;;
15557;SDS011;7880;50.110;9.372;2022-07-22T18:46:30;5.6;;;5.1000000000000005;;
15557;SDS011;7880;50.110;9.372;2022-07-22T18:51:38;5.46923076923077;;;4.8999999999999995;;
15557;SDS011;7880;50.110;9.372;2022-07-22T18:56:38;5.0;;;4.6000000000000005;;
15557;SDS011;7880;50.110;9.372;2022-07-22T19:01:42;5.230769230769231;;;4.799999999999999;;
15557;SDS011;7880;50.110;9.372;2022-07-22T19:06:46;5.961538461538462;;;5.0;;
15557;SDS011;7880;50.110;9.372;2022-07-22T19:11:50;6.43076923076923;;;5.8307692307692305;;
15557;SDS011;7880;50.110;9.372;2022-07-22T19:16:52;4.846153846153847;;;4.4461538461538455;;
15557;SDS011;7880;50.110;9.372;2022-07-22T19:21:55;7.507692307692305;;;5.361538461538462;;
15557;SDS011;7880;50.110;9.372;2022-07-22T19:26:32;8.05384615384615;;;5.107692307692309;;
15557;SDS011;7880;50.110;9.372;2022-07-22T19:31:36;5.799999999999998;;;5.299999999999999;;
15557;SDS011;7880;50.110;9.372;2022-07-22T19:36:43;5.799999999999998;;;5.200000000000001;;
15557;SDS011;7880;50.110;9.372;2022-07-22T19:41:46;6.338461538461538;;;5.0;;
15557;SDS011;7880;50.110;9.372;2022-07-22T19:46:51;6.130769230769232;;;5.53076923076923;;
15557;SDS011;7880;50.110;9.372;2022-07-22T19:51:51;10.161538461538461;;;5.9;;
15557;SDS011;7880;50.110;9.372;2022-07-22T19:57:00;5.230769230769231;;;4.730769230769231;;
15557;SDS011;7880;50.110;9.372;2022-07-22T20:01:58;5.730769230769231;;;5.230769230769231;;
15557;SDS011;7880;50.110;9.372;2022-07-22T20:07:01;6.438461538461538;;;5.46923076923077;;
15557;SDS011;7880;50.110;9.372;2022-07-22T20:12:06;7.446153846153848;;;6.4;;
15557;SDS011;7880;50.110;9.372;2022-07-22T20:17:09;6.700000000000002;;;6.1;;
15557;SDS011;7880;50.110;9.372;2022-07-22T20:22:14;6.838461538461539;;;5.1000000000000005;;
15557;SDS011;7880;50.110;9.372;2022-07-22T20:27:18;6.438461538461538;;;5.5;;
15557;SDS011;7880;50.110;9.372;2022-07-22T20:32:21;7.93076923076923;;;6.030769230769229;;
15557;SDS011;7880;50.110;9.372;2022-07-22T20:37:24;6.269230769230769;;;5.6;;
15557;SDS011;7880;50.110;9.372;2022-07-22T20:42:29;6.092307692307691;;;5.03076923076923;;
15557;SDS011;7880;50.110;9.372;2022-07-22T20:47:40;6.061538461538462;;;5.43076923076923;;
15557;SDS011;7880;50.110;9.372;2022-07-22T20:52:37;6.030769230769229;;;5.43076923076923;;
15557;SDS011;7880;50.110;9.372;2022-07-22T20:57:39;7.738461538461536;;;5.5;;
15557;SDS011;7880;50.110;9.372;2022-07-22T21:02:43;6.123076923076924;;;5.43076923076923;;
15557;SDS011;7880;50.110;9.372;2022-07-22T21:07:55;7.900000000000001;;;5.9;;
15557;SDS011;7880;50.110;9.372;2022-07-22T21:12:51;6.953846153846152;;;5.961538461538459;;
15557;SDS011;7880;50.110;9.372;2022-07-22T21:17:55;6.900000000000001;;;5.799999999999998;;
15557;SDS011;7880;50.110;9.372;2022-07-22T21:22:58;6.599999999999999;;;6.0;;
15557;SDS011;7880;50.110;9.372;2022-07-22T21:28:01;6.4;;;5.799999999999998;;
15557;SDS011;7880;50.110;9.372;2022-07-22T21:33:03;10.63846153846154;;;6.900000000000001;;
15557;SDS011;7880;50.110;9.372;2022-07-22T21:38:07;9.407692307692308;;;6.4;;
15557;SDS011;7880;50.110;9.372;2022-07-22T21:43:10;6.900000000000001;;;6.200000000000002;;
15557;SDS011;7880;50.110;9.372;2022-07-22T21:48:14;7.099999999999999;;;6.4;;
15557;SDS011;7880;50.110;9.372;2022-07-22T21:53:21;10.238461538461536;;;6.200000000000002;;
15557;SDS011;7880;50.110;9.372;2022-07-22T21:58:23;6.830769230769231;;;6.200000000000002;;
15557;SDS011;7880;50.110;9.372;2022-07-22T22:03:27;7.261538461538463;;;5.200000000000001;;
15557;SDS011;7880;50.110;9.372;2022-07-22T22:08:31;6.669230769230769;;;6.06923076923077;;
15557;SDS011;7880;50.110;9.372;2022-07-22T22:13:35;7.723076923076926;;;6.5;;
15557;SDS011;7880;50.110;9.372;2022-07-22T22:18:43;6.86153846153846;;;6.030769230769229;;
15557;SDS011;7880;50.110;9.372;2022-07-22T22:23:54;6.4;;;5.799999999999998;;
15557;SDS011;7880;50.110;9.372;2022-07-22T22:28:51;6.730769230769231;;;5.661538461538462;;
15557;SDS011;7880;50.110;9.372;2022-07-22T22:33:52;7.369230769230768;;;5.93076923076923;;
15557;SDS011;7880;50.110;9.372;2022-07-22T22:38:58;6.769230769230769;;;6.169230769230769;;
15557;SDS011;7880;50.110;9.372;2022-07-22T22:43:59;6.161538461538462;;;5.630769230769232;;
15557;SDS011;7880;50.110;9.372;2022-07-22T22:49:04;7.0;;;5.799999999999998;;